createdAt,value
2023-04-20T00:01:44.408Z,99866.56
2023-04-20T00:04:32.229Z,99839.53
2023-04-20T00:11:13.657Z,99847.47
2023-04-20T00:14:01.808Z,99852.97
2023-04-20T00:16:49.702Z,99854.44
2023-04-20T00:19:39.622Z,99862.00
2023-04-20T00:22:36.159Z,99861.56
2023-04-20T00:25:23.854Z,99833.16
2023-04-20T00:28:11.542Z,99860.16
2023-04-20T00:31:01.465Z,99849.88
2023-04-20T00:33:49.523Z,99825.94
2023-04-20T00:36:37.192Z,99853.56
2023-04-20T00:39:24.885Z,99847.69
2023-04-20T00:42:12.558Z,99851.81
2023-04-20T00:45:00.204Z,99851.38
2023-04-20T00:47:49.174Z,99781.63
2023-04-20T00:50:38.622Z,99856.72
2023-04-20T00:53:27.803Z,99842.75
2023-04-20T00:56:16.973Z,99824.41
2023-04-20T00:59:04.912Z,99843.28
2023-04-20T01:01:52.676Z,99837.25
2023-04-20T01:04:40.800Z,99820.75
2023-04-20T01:07:30.322Z,99841.59
2023-04-20T01:10:17.977Z,99851.22
2023-04-20T01:13:05.699Z,99826.69
2023-04-20T01:15:54.535Z,99830.25
2023-04-20T01:18:44.728Z,99808.66
2023-04-20T01:21:32.695Z,99827.94
2023-04-20T01:24:20.509Z,99835.09
2023-04-20T01:27:08.160Z,99790.13
2023-04-20T01:29:55.934Z,99837.63
2023-04-20T01:32:44.648Z,99839.78
2023-04-20T01:35:32.383Z,99834.47
2023-04-20T01:38:23.589Z,99840.63
2023-04-20T01:41:11.558Z,99796.41
2023-04-20T01:43:59.190Z,99796.66
2023-04-20T01:46:46.859Z,99830.44
2023-04-20T01:49:36.793Z,99833.34
2023-04-20T01:52:24.412Z,99825.41
2023-04-20T01:55:12.106Z,99818.47
2023-04-20T01:57:59.741Z,99822.91
2023-04-20T02:00:47.645Z,99809.72
2023-04-20T02:03:35.565Z,99822.44
2023-04-20T02:06:23.394Z,99821.84
2023-04-20T02:09:11.196Z,99796.44
2023-04-20T02:11:58.842Z,99780.75
2023-04-20T02:14:46.546Z,99811.66
2023-04-20T02:17:37.035Z,99805.38
2023-04-20T02:20:24.935Z,99813.06
2023-04-20T02:23:13.106Z,99800.78
2023-04-20T02:26:01.047Z,99804.19
2023-04-20T02:28:48.762Z,99806.69
2023-04-20T02:31:36.582Z,99809.31
2023-04-20T02:34:25.056Z,99814.84
2023-04-20T02:37:12.760Z,99809.94
2023-04-20T02:40:02.881Z,99808.34
2023-04-20T02:42:50.652Z,99810.41
2023-04-20T02:45:38.548Z,99784.66
2023-04-20T02:48:26.925Z,99801.28
2023-04-20T02:51:15.398Z,99804.81
2023-04-20T02:54:06.207Z,99813.97
2023-04-20T02:56:54.001Z,99809.38
2023-04-20T02:59:42.358Z,99807.91
2023-04-20T03:02:37.898Z,99815.00
2023-04-20T03:05:25.658Z,99813.59
2023-04-20T03:08:13.669Z,99813.59
2023-04-20T03:11:02.528Z,99801.03
2023-04-20T03:13:50.285Z,99814.22
2023-04-20T03:16:39.036Z,99815.34
2023-04-20T03:19:28.020Z,99788.00
2023-04-20T03:22:21.446Z,99818.81
2023-04-20T03:25:13.654Z,99807.59
2023-04-20T03:28:20.705Z,99807.72
2023-04-20T03:31:08.647Z,99806.34
2023-04-20T03:33:56.353Z,99802.44
2023-04-20T03:36:44.160Z,99813.00
2023-04-20T03:39:31.941Z,99807.53
2023-04-20T03:42:19.768Z,99816.78
2023-04-20T03:45:09.647Z,99820.13
2023-04-20T03:47:57.437Z,99812.81
2023-04-20T03:50:46.297Z,99810.84
2023-04-20T03:53:34.249Z,99774.09
2023-04-20T03:56:22.794Z,99826.00
2023-04-20T03:59:12.483Z,99827.16
2023-04-20T04:02:02.910Z,99823.84
2023-04-20T04:04:50.860Z,99812.88
2023-04-20T04:07:38.625Z,99807.81
2023-04-20T04:10:27.073Z,99822.22
2023-04-20T04:13:14.918Z,99809.09
2023-04-20T04:16:02.912Z,99824.03
2023-04-20T04:18:50.929Z,99827.66
2023-04-20T04:21:39.938Z,99830.41
2023-04-20T04:24:28.283Z,99837.59
2023-04-20T04:27:30.027Z,99822.78
2023-04-20T04:30:18.165Z,99832.13
2023-04-20T04:33:06.062Z,99832.91
2023-04-20T04:35:57.772Z,99836.59
2023-04-20T04:38:46.360Z,99840.13
2023-04-20T04:41:34.253Z,99831.69
2023-04-20T04:44:40.546Z,99828.78
2023-04-20T04:47:35.444Z,99833.47
2023-04-20T04:50:23.706Z,99838.34
2023-04-20T04:53:12.597Z,99829.97
2023-04-20T04:56:00.329Z,99839.75
2023-04-20T04:58:48.006Z,99842.63
2023-04-20T05:01:35.874Z,99835.38
2023-04-20T05:04:23.689Z,99833.81
2023-04-20T05:07:11.429Z,99808.25
2023-04-20T05:09:59.094Z,99834.53
2023-04-20T05:12:47.122Z,99828.28
2023-04-20T05:15:34.875Z,99815.75
2023-04-20T05:18:22.551Z,99810.03
2023-04-20T05:21:10.326Z,99808.13
2023-04-20T05:23:58.084Z,99786.84
2023-04-20T05:26:48.744Z,99816.81
2023-04-20T05:29:36.428Z,99804.34
2023-04-20T05:32:24.130Z,99817.44
2023-04-20T05:35:11.874Z,99813.00
2023-04-20T05:38:02.702Z,99826.72
2023-04-20T05:40:51.217Z,99816.22
2023-04-20T05:43:38.829Z,99817.75
2023-04-20T05:46:26.625Z,99820.63
2023-04-20T05:49:14.534Z,99817.69
2023-04-20T05:52:02.410Z,99817.50
2023-04-20T05:54:50.104Z,99818.69
2023-04-20T05:57:43.083Z,99812.63
2023-04-20T06:00:30.687Z,99831.28
2023-04-20T06:03:18.789Z,99827.56
2023-04-20T06:06:07.150Z,99833.25
2023-04-20T06:08:55.332Z,99832.31
2023-04-20T06:11:42.955Z,99825.03
2023-04-20T06:14:30.658Z,99822.44
2023-04-20T06:17:18.395Z,99838.63
2023-04-20T06:20:07.998Z,99843.81
2023-04-20T06:22:55.785Z,99806.59
2023-04-20T06:25:44.274Z,99834.69
2023-04-20T06:28:31.960Z,99812.75
2023-04-20T06:31:20.400Z,99819.16
2023-04-20T06:34:40.241Z,99831.56
2023-04-20T06:37:30.094Z,99837.47
2023-04-20T06:40:17.870Z,99836.59
2023-04-20T06:43:05.530Z,99837.06
2023-04-20T06:45:53.317Z,99819.94
2023-04-20T06:48:40.974Z,99846.25
2023-04-20T06:51:29.457Z,99843.06
2023-04-20T06:54:17.068Z,99831.53
2023-04-20T06:57:05.848Z,99849.44
2023-04-20T06:59:53.516Z,99843.41
2023-04-20T07:02:49.497Z,99843.25
2023-04-20T07:05:37.369Z,99839.47
2023-04-20T07:08:25.141Z,99841.22
2023-04-20T07:11:12.773Z,99845.50
2023-04-20T07:14:11.227Z,99828.44
2023-04-20T07:16:58.833Z,99814.59
2023-04-20T07:19:49.306Z,99847.72
2023-04-20T07:22:38.366Z,99836.50
2023-04-20T07:25:26.246Z,99841.84
2023-04-20T07:28:14.150Z,99839.97
2023-04-20T07:31:01.751Z,99848.34
2023-04-20T07:33:49.377Z,99838.97
2023-04-20T07:36:39.313Z,99846.47
2023-04-20T07:39:30.619Z,99840.25
2023-04-20T07:42:21.846Z,99848.34
2023-04-20T07:45:11.455Z,99848.50
2023-04-20T07:48:01.761Z,99849.41
2023-04-20T07:50:50.765Z,99853.28
2023-04-20T07:53:38.455Z,99852.59
2023-04-20T07:56:26.294Z,99830.19
2023-04-20T07:59:13.997Z,99842.09
2023-04-20T08:02:02.693Z,99851.22
2023-04-20T08:04:50.790Z,99831.63
2023-04-20T08:07:44.088Z,99802.00
2023-04-20T08:10:31.842Z,99829.44
2023-04-20T08:13:19.528Z,99827.00
2023-04-20T08:16:09.805Z,99809.59
2023-04-20T08:18:57.442Z,99835.72
2023-04-20T08:21:45.285Z,99820.53
2023-04-20T08:24:35.614Z,99839.03
2023-04-20T08:27:23.578Z,99822.28
2023-04-20T08:30:17.070Z,99844.59
2023-04-20T08:33:06.989Z,99846.22
2023-04-20T08:35:54.775Z,99836.66
2023-04-20T08:38:42.377Z,99836.13
2023-04-20T08:41:33.683Z,99840.31
2023-04-20T08:44:21.952Z,99830.34
2023-04-20T08:47:11.933Z,99832.97
2023-04-20T08:50:01.144Z,99811.75
2023-04-20T08:52:48.797Z,99826.09
2023-04-20T08:55:36.648Z,99848.63
2023-04-20T08:58:34.673Z,99825.59
2023-04-20T09:01:34.663Z,99835.06
2023-04-20T09:04:27.150Z,99791.16
2023-04-20T09:07:20.430Z,99809.44
2023-04-20T09:10:15.476Z,99829.56
2023-04-20T09:13:06.322Z,99832.03
2023-04-20T09:15:53.979Z,99832.97
2023-04-20T09:18:55.157Z,99826.44
2023-04-20T09:21:51.098Z,99794.28
2023-04-20T09:24:39.966Z,99830.69
2023-04-20T09:27:29.001Z,99825.59
2023-04-20T09:30:16.659Z,99828.31
2023-04-20T09:33:08.706Z,99825.47
2023-04-20T09:36:04.524Z,99824.88
2023-04-20T09:39:06.607Z,99799.13
2023-04-20T09:41:55.305Z,99802.47
2023-04-20T09:44:46.317Z,99824.81
2023-04-20T09:47:37.348Z,99824.72
2023-04-20T09:50:34.975Z,99787.53
2023-04-20T09:53:31.896Z,99812.09
2023-04-20T09:56:22.931Z,99806.59
2023-04-20T09:59:14.086Z,99814.88
2023-04-20T10:02:01.926Z,99786.31
2023-04-20T10:04:59.765Z,99784.81
2023-04-20T10:07:47.513Z,99781.06
2023-04-20T10:10:46.842Z,99806.63
2023-04-20T10:13:42.720Z,99760.59
2023-04-20T10:16:30.827Z,99789.13
2023-04-20T10:19:21.456Z,99756.78
2023-04-20T10:22:27.022Z,99726.00
2023-04-20T10:25:21.086Z,99798.63
2023-04-20T10:28:10.834Z,99790.06
2023-04-20T10:30:58.766Z,99789.72
2023-04-20T10:34:04.920Z,99770.97
2023-04-20T10:36:52.871Z,99789.53
2023-04-20T10:39:47.721Z,99747.22
2023-04-20T10:42:46.973Z,99783.81
2023-04-20T10:45:36.614Z,99774.81
2023-04-20T10:48:24.433Z,99786.31
2023-04-20T10:51:12.154Z,99785.34
2023-04-20T10:54:03.950Z,99780.34
2023-04-20T10:56:54.232Z,99762.50
2023-04-20T10:59:42.429Z,99780.03
2023-04-20T11:02:31.450Z,99769.59
2023-04-20T11:05:21.975Z,99777.16
2023-04-20T11:08:09.753Z,99770.63
2023-04-20T11:10:59.908Z,99746.22
2023-04-20T11:13:48.733Z,99769.81
2023-04-20T11:16:49.584Z,99776.06
2023-04-20T11:19:39.346Z,99708.84
2023-04-20T11:22:27.037Z,99768.81
2023-04-20T11:25:14.779Z,99755.69
2023-04-20T11:28:08.255Z,99767.16
2023-04-20T11:30:56.081Z,99723.31
2023-04-20T11:33:44.862Z,99725.03
2023-04-20T11:36:32.633Z,99727.34
2023-04-20T11:39:27.604Z,99757.31
2023-04-20T11:42:15.262Z,99736.59
2023-04-20T11:45:06.876Z,99742.13
2023-04-20T11:47:58.377Z,99740.09
2023-04-20T11:50:47.145Z,99742.66
2023-04-20T11:53:35.080Z,99742.41
2023-04-20T11:56:23.112Z,99730.06
2023-04-20T11:59:12.461Z,99732.31
2023-04-20T12:02:04.461Z,99721.88
2023-04-20T12:04:52.489Z,99717.94
2023-04-20T12:07:40.364Z,99712.47
2023-04-20T12:10:28.284Z,99704.50
2023-04-20T12:13:16.367Z,99716.13
2023-04-20T12:16:04.065Z,99714.22
2023-04-20T12:18:52.124Z,99696.84
2023-04-20T12:21:39.630Z,99709.91
2023-04-20T12:24:29.723Z,99662.03
2023-04-20T12:27:17.432Z,99681.00
2023-04-20T12:30:05.863Z,99705.97
2023-04-20T12:32:53.528Z,99662.09
2023-04-20T12:35:43.842Z,99688.41
2023-04-20T12:38:33.799Z,99674.06
2023-04-20T12:41:23.081Z,99680.22
2023-04-20T12:44:11.546Z,99671.88
2023-04-20T12:46:59.576Z,99675.47
2023-04-20T12:49:47.319Z,99632.00
2023-04-20T12:52:37.282Z,99647.13
2023-04-20T12:55:26.427Z,99669.84
2023-04-20T12:58:16.343Z,99650.09
2023-04-20T13:01:04.100Z,99659.63
2023-04-20T13:03:55.086Z,99661.19
2023-04-20T13:06:43.170Z,99658.97
2023-04-20T13:09:31.044Z,99643.06
2023-04-20T13:12:19.286Z,99631.81
2023-04-20T13:15:11.373Z,99646.38
2023-04-20T13:17:59.042Z,99644.75
2023-04-20T13:20:46.756Z,99584.50
2023-04-20T13:23:34.582Z,99645.19
2023-04-20T13:26:22.926Z,99640.88
2023-04-20T13:29:10.553Z,99610.63
2023-04-20T13:31:58.430Z,99631.34
2023-04-20T13:34:46.392Z,99610.38
2023-04-20T13:37:37.953Z,99638.22
2023-04-20T13:40:26.695Z,99634.84
2023-04-20T13:43:14.691Z,99623.50
2023-04-20T13:46:02.395Z,99591.25
2023-04-20T13:48:50.192Z,99606.25
2023-04-20T13:51:42.026Z,99609.75
2023-04-20T13:54:29.571Z,99625.97
2023-04-20T13:57:17.259Z,99619.44
2023-04-20T14:00:05.755Z,99586.31
2023-04-20T14:02:53.577Z,99614.22
2023-04-20T14:05:42.150Z,99585.41
2023-04-20T14:08:32.361Z,99590.75
2023-04-20T14:11:20.075Z,99609.94
2023-04-20T14:14:09.975Z,99575.19
2023-04-20T14:16:57.738Z,99587.97
2023-04-20T14:19:45.361Z,99615.78
2023-04-20T14:22:36.207Z,99576.34
2023-04-20T14:25:23.935Z,99616.47
2023-04-20T14:28:11.704Z,99614.81
2023-04-20T14:31:01.004Z,99618.34
2023-04-20T14:33:48.819Z,99611.50
2023-04-20T14:36:36.442Z,99619.03
2023-04-20T14:39:24.240Z,99604.75
2023-04-20T14:42:13.324Z,99597.34
2023-04-20T14:45:01.073Z,99593.53
2023-04-20T14:47:58.425Z,99619.72
2023-04-20T14:50:46.182Z,99601.03
2023-04-20T14:53:38.515Z,99597.34
2023-04-20T14:56:26.416Z,99631.78
2023-04-20T14:59:28.346Z,99641.50
2023-04-20T15:02:16.431Z,99639.03
2023-04-20T15:05:09.920Z,99596.88
2023-04-20T15:08:00.641Z,99643.88
2023-04-20T15:10:48.320Z,99642.19
2023-04-20T15:13:36.143Z,99613.81
2023-04-20T15:16:26.437Z,99618.16
2023-04-20T15:19:14.406Z,99651.06
2023-04-20T15:22:02.254Z,99650.91
2023-04-20T15:24:55.065Z,99648.91
2023-04-20T15:30:33.217Z,99660.69
2023-04-20T15:33:24.994Z,99635.44
2023-04-20T15:36:20.755Z,99661.03
2023-04-20T15:39:11.303Z,99612.56
2023-04-20T15:42:06.463Z,99665.63
2023-04-20T15:44:54.376Z,99613.84
2023-04-20T15:47:42.262Z,99656.00
2023-04-20T15:50:35.545Z,99645.28
2023-04-20T15:53:23.382Z,99647.22
2023-04-20T15:56:11.068Z,99602.44
2023-04-20T15:58:58.880Z,99652.47
2023-04-20T16:01:49.700Z,99647.47
2023-04-20T16:04:47.980Z,99660.66
2023-04-20T16:07:35.954Z,99668.47
2023-04-20T16:10:24.010Z,99656.38
2023-04-20T16:13:15.031Z,99638.75
2023-04-20T16:16:03.412Z,99630.50
2023-04-20T16:18:58.366Z,99664.75
2023-04-20T16:21:51.483Z,99674.81
2023-04-20T16:24:42.553Z,99671.88
2023-04-20T16:27:49.080Z,99665.38
2023-04-20T16:30:44.779Z,99676.97
2023-04-20T16:33:33.155Z,99671.84
2023-04-20T16:36:21.024Z,99666.75
2023-04-20T16:39:10.451Z,99633.94
2023-04-20T16:42:00.572Z,99673.97
2023-04-20T16:44:48.343Z,99676.63
2023-04-20T16:47:36.258Z,99652.56
2023-04-20T16:50:25.852Z,99673.25
2023-04-20T16:53:13.467Z,99673.44
2023-04-20T16:56:01.275Z,99661.31
2023-04-20T16:58:48.895Z,99687.66
2023-04-20T17:01:36.701Z,99691.34
2023-04-20T17:04:24.444Z,99689.34
2023-04-20T17:07:17.958Z,99691.47
2023-04-20T17:10:06.304Z,99700.22
2023-04-20T17:12:59.660Z,99688.31
2023-04-20T17:15:57.562Z,99681.25
2023-04-20T17:18:45.468Z,99652.69
2023-04-20T17:21:40.642Z,99695.19
2023-04-20T17:24:28.450Z,99669.81
2023-04-20T17:27:16.331Z,99680.13
2023-04-20T17:30:05.373Z,99692.03
2023-04-20T17:32:53.584Z,99684.03
2023-04-20T17:35:41.471Z,99701.50
2023-04-20T17:38:29.092Z,99684.41
2023-04-20T17:41:16.921Z,99701.88
2023-04-20T17:44:04.637Z,99710.53
2023-04-20T17:46:53.414Z,99693.41
2023-04-20T17:49:44.787Z,99703.31
2023-04-20T17:52:32.994Z,99684.19
2023-04-20T17:55:23.022Z,99720.34
2023-04-20T17:58:10.854Z,99700.75
2023-04-20T18:00:58.510Z,99727.41
2023-04-20T18:03:48.516Z,99718.59
2023-04-20T18:06:36.293Z,99720.16
2023-04-20T18:09:24.175Z,99731.28
2023-04-20T18:12:11.908Z,99701.75
2023-04-20T18:14:59.773Z,99727.16
2023-04-20T18:17:47.494Z,99707.22
2023-04-20T18:20:35.338Z,99739.31
2023-04-20T18:23:22.955Z,99725.72
2023-04-20T18:26:17.485Z,99744.44
2023-04-20T18:29:05.508Z,99738.00
2023-04-20T18:31:55.207Z,99751.47
2023-04-20T18:34:42.781Z,99699.72
2023-04-20T18:37:30.800Z,99741.75
2023-04-20T18:40:18.885Z,99746.13
2023-04-20T18:43:07.019Z,99755.53
2023-04-20T18:45:54.655Z,99745.19
2023-04-20T18:48:42.452Z,99723.00
2023-04-20T18:51:30.129Z,99742.84
2023-04-20T18:54:18.220Z,99747.41
2023-04-20T18:57:07.348Z,99751.38
2023-04-20T18:59:58.329Z,99737.88
2023-04-20T19:02:46.152Z,99726.78
2023-04-20T19:05:33.898Z,99739.00
2023-04-20T19:08:22.577Z,99669.53
2023-04-20T19:11:10.426Z,99750.06
2023-04-20T19:13:58.144Z,99760.28
2023-04-20T19:16:45.992Z,99748.16
2023-04-20T19:19:33.867Z,99756.44
2023-04-20T19:22:21.652Z,99762.44
2023-04-20T19:25:09.719Z,99732.56
2023-04-20T19:27:59.141Z,99764.34
2023-04-20T19:30:47.136Z,99771.06
2023-04-20T19:33:35.914Z,99729.25
2023-04-20T19:36:23.568Z,99731.28
2023-04-20T19:39:11.776Z,99759.50
2023-04-20T19:41:59.411Z,99777.59
2023-04-20T19:44:47.559Z,99742.16
2023-04-20T19:47:36.075Z,99776.41
2023-04-20T19:50:23.882Z,99787.88
2023-04-20T19:53:11.406Z,99771.34
2023-04-20T19:55:59.243Z,99782.44
2023-04-20T19:58:47.322Z,99770.94
2023-04-20T20:01:35.029Z,99782.94
2023-04-20T20:04:22.874Z,99775.75
2023-04-20T20:07:11.136Z,99790.06
2023-04-20T20:09:58.896Z,99778.56
2023-04-20T20:12:52.587Z,99774.94
2023-04-20T20:15:40.382Z,99776.50
2023-04-20T20:18:28.115Z,99786.50
2023-04-20T20:21:16.159Z,99790.97
2023-04-20T20:24:04.070Z,99787.06
2023-04-20T20:26:54.405Z,99790.75
2023-04-20T20:29:42.081Z,99750.69
2023-04-20T20:32:29.757Z,99781.81
2023-04-20T20:35:17.660Z,99798.69
2023-04-20T20:38:06.918Z,99747.63
2023-04-20T20:40:55.309Z,99798.94
2023-04-20T20:43:43.005Z,99789.25
2023-04-20T20:46:31.939Z,99767.31
2023-04-20T20:49:19.860Z,99791.13
2023-04-20T20:52:07.860Z,99792.13
2023-04-20T20:54:55.618Z,99767.50
2023-04-20T20:57:43.372Z,99796.41
2023-04-20T21:00:31.121Z,99794.69
2023-04-20T21:03:19.236Z,99762.31
2023-04-20T21:06:07.280Z,99793.41
2023-04-20T21:08:55.258Z,99766.50
2023-04-20T21:11:56.636Z,99773.69
2023-04-20T21:16:53.887Z,99698.53
2023-04-20T21:18:05.838Z,99766.69
2023-04-20T21:20:53.752Z,99778.50
2023-04-20T21:23:41.380Z,99733.09
2023-04-20T21:26:35.031Z,99785.00
2023-04-20T21:29:22.645Z,99785.31
2023-04-20T21:32:10.724Z,99763.22
2023-04-20T21:34:58.400Z,99789.53
2023-04-20T21:37:46.237Z,99802.69
2023-04-20T21:40:34.414Z,99768.25
2023-04-20T21:43:22.098Z,99787.59
2023-04-20T21:46:14.578Z,99763.41
2023-04-20T21:49:02.872Z,99794.59
2023-04-20T21:51:50.526Z,99782.44
2023-04-20T21:54:41.064Z,99775.00
2023-04-20T21:57:28.702Z,99785.88
2023-04-20T22:00:18.300Z,99785.19
2023-04-20T22:03:06.195Z,99743.38
2023-04-20T22:05:53.992Z,99776.50
2023-04-20T22:08:42.149Z,99780.56
2023-04-20T22:11:30.359Z,99792.09
2023-04-20T22:14:18.133Z,99782.69
2023-04-20T22:17:05.907Z,99793.56
2023-04-20T22:19:53.479Z,99776.41
2023-04-20T22:22:41.575Z,99789.84
2023-04-20T22:25:29.115Z,99782.63
2023-04-20T22:28:17.014Z,99796.53
2023-04-20T22:31:04.841Z,99770.59
2023-04-20T22:33:52.635Z,99764.63
2023-04-20T22:36:41.348Z,99769.94
2023-04-20T22:39:29.091Z,99777.22
2023-04-20T22:42:16.694Z,99775.97
2023-04-20T22:45:05.012Z,99771.09
2023-04-20T22:47:52.805Z,99753.69
2023-04-20T22:50:41.522Z,99759.56
2023-04-20T22:53:31.802Z,99765.19
2023-04-20T22:56:19.585Z,99778.28
2023-04-20T22:59:07.271Z,99768.25
2023-04-20T23:01:55.096Z,99759.81
2023-04-20T23:04:44.507Z,99725.56
2023-04-20T23:07:33.355Z,99749.13
2023-04-20T23:10:21.207Z,99754.81
2023-04-20T23:13:08.943Z,99752.59
2023-04-20T23:15:56.624Z,99754.31
2023-04-20T23:18:44.410Z,99751.50
2023-04-20T23:21:33.054Z,99749.09
2023-04-20T23:24:20.826Z,99744.00
2023-04-20T23:27:08.354Z,99732.47
2023-04-20T23:29:56.339Z,99737.88
2023-04-20T23:32:44.554Z,99741.50
2023-04-20T23:35:32.543Z,99671.03
2023-04-20T23:38:22.471Z,99740.16
2023-04-20T23:41:11.731Z,99739.72
2023-04-20T23:43:59.321Z,99728.94
2023-04-20T23:46:47.096Z,99737.31
2023-04-20T23:49:34.783Z,99738.69
2023-04-20T23:52:22.866Z,99727.06
2023-04-20T23:55:10.847Z,99723.25
2023-04-20T23:57:58.694Z,99744.75
